Time;durP1;ratioP1;P1;durP2;ratioP2;P2;SDS_P1;SDS_P2;PMS_P1;PMS_P2;Temp;Humidity;BMP_temperature;BMP_pressure;BME280_temperature;BME280_humidity;BME280_pressure;Samples;Min_cycle;Max_cycle;Signal;HPM_P1;HPM_P2
2023/04/16 00:00:57;;;;;;;0.55;0.55;;;7.50;99.90;;;;;;5036287;28;20045;-76
2023/04/16 00:03:23;;;;;;;2.88;1.10;;;7.60;99.90;;;;;;5025385;28;20055;-76
2023/04/16 00:05:49;;;;;;;0.52;0.52;;;7.60;99.90;;;;;;5022598;28;20049;-76
2023/04/16 00:08:14;;;;;;;0.77;0.77;;;7.60;99.90;;;;;;5024811;28;20110;-76
2023/04/16 00:10:40;;;;;;;3.97;0.95;;;7.50;99.90;;;;;;5025664;28;20053;-76
2023/04/16 00:13:06;;;;;;;1.70;0.95;;;7.70;99.90;;;;;;5019179;28;20056;-76
2023/04/16 00:15:31;;;;;;;0.50;0.50;;;7.60;99.90;;;;;;5020429;28;20038;-76
2023/04/16 00:17:57;;;;;;;1.30;1.30;;;7.60;99.90;;;;;;5025310;28;20080;-76
2023/04/16 00:20:23;;;;;;;1.33;1.27;;;7.60;99.90;;;;;;5023488;28;20057;-75
2023/04/16 00:22:50;;;;;;;0.80;0.80;;;7.60;99.90;;;;;;5018946;28;20160;-75
2023/04/16 00:25:16;;;;;;;1.23;1.13;;;7.60;99.90;;;;;;5023462;28;20439;-76
2023/04/16 00:27:41;;;;;;;6.43;1.50;;;7.70;99.90;;;;;;5022266;28;20049;-76
2023/04/16 00:30:07;;;;;;;0.50;0.50;;;7.60;99.90;;;;;;5025360;28;20120;-76
2023/04/16 00:32:33;;;;;;;;;;;7.60;99.90;;;;;;5021483;28;20073;-76
2023/04/16 00:34:59;;;;;;;1.15;1.15;;;7.70;99.90;;;;;;5021891;28;20613;-77
2023/04/16 00:37:25;;;;;;;0.93;0.93;;;7.60;99.90;;;;;;5023078;28;20055;-76
2023/04/16 00:39:50;;;;;;;;;;;7.60;99.90;;;;;;5024943;28;20454;-76
2023/04/16 00:42:16;;;;;;;0.90;0.75;;;7.60;99.90;;;;;;5023547;28;19921;-76
2023/04/16 00:44:42;;;;;;;1.65;1.55;;;7.60;99.90;;;;;;5025146;28;20133;-76
2023/04/16 00:47:08;;;;;;;1.00;1.00;;;7.60;99.90;;;;;;5024794;28;20124;-76
2023/04/16 00:49:34;;;;;;;;;;;7.50;99.90;;;;;;5021238;28;20945;-76
2023/04/16 00:52:02;;;;;;;0.68;0.68;;;7.60;99.90;;;;;;5018364;28;19925;-76
2023/04/16 00:54:28;;;;;;;1.15;1.15;;;7.60;99.90;;;;;;5016582;28;20053;-76
2023/04/16 00:56:54;;;;;;;1.05;1.05;;;7.50;99.90;;;;;;5023928;28;20041;-75
2023/04/16 00:59:20;;;;;;;1.30;1.30;;;7.50;99.90;;;;;;5024095;28;20135;-76
2023/04/16 01:01:46;;;;;;;0.80;0.80;;;7.50;99.90;;;;;;5024223;28;20120;-76
2023/04/16 01:04:12;;;;;;;1.65;1.55;;;7.60;99.90;;;;;;5019307;28;20044;-76
2023/04/16 01:06:37;;;;;;;1.88;1.77;;;7.60;99.90;;;;;;5024293;28;20061;-77
2023/04/16 01:09:04;;;;;;;2.10;1.08;;;7.50;99.90;;;;;;5027752;28;20045;-76
2023/04/16 01:11:30;;;;;;;1.35;1.35;;;7.50;99.90;;;;;;5023023;28;20159;-76
2023/04/16 01:13:55;;;;;;;1.75;1.65;;;7.50;99.90;;;;;;5028314;28;20088;-76
2023/04/16 01:16:21;;;;;;;1.85;1.73;;;7.50;99.90;;;;;;5026749;28;20049;-76
2023/04/16 01:18:47;;;;;;;0.77;0.77;;;7.50;99.90;;;;;;5044440;28;20048;-76
2023/04/16 01:21:12;;;;;;;0.65;0.55;;;7.50;99.90;;;;;;5026639;28;20144;-76
2023/04/16 01:23:38;;;;;;;2.17;1.38;;;7.50;99.90;;;;;;5025911;28;20049;-76
2023/04/16 01:26:04;;;;;;;0.55;0.55;;;7.50;99.90;;;;;;5027535;28;20037;-77
2023/04/16 01:28:29;;;;;;;7.13;1.17;;;7.50;99.90;;;;;;5021062;28;20100;-75
2023/04/16 01:30:55;;;;;;;3.03;1.33;;;7.40;99.90;;;;;;5028189;28;20175;-76
2023/04/16 01:33:21;;;;;;;1.00;1.00;;;7.50;99.90;;;;;;5028840;28;20046;-76
2023/04/16 01:35:46;;;;;;;1.08;1.08;;;7.50;99.90;;;;;;5009483;28;20141;-88
2023/04/16 01:38:12;;;;;;;1.88;1.77;;;7.50;99.90;;;;;;5040183;28;20171;-87
2023/04/16 01:40:38;;;;;;;1.45;1.00;;;7.50;99.90;;;;;;5024503;28;20056;-86
2023/04/16 01:43:03;;;;;;;0.50;0.50;;;7.50;99.90;;;;;;5041027;28;20475;-87
2023/04/16 01:45:33;;;;;;;2.45;0.98;;;7.50;99.90;;;;;;5040178;28;20059;-88
2023/04/16 01:47:59;;;;;;;3.13;1.88;;;7.50;99.90;;;;;;5039597;28;20100;-86
2023/04/16 01:50:24;;;;;;;0.90;0.90;;;7.50;99.90;;;;;;5039149;28;20037;-88
2023/04/16 01:52:50;;;;;;;1.15;1.15;;;7.50;99.90;;;;;;5040566;28;20042;-86
2023/04/16 01:55:16;;;;;;;1.30;1.25;;;7.40;99.90;;;;;;5022714;28;20361;-86
2023/04/16 01:57:42;;;;;;;1.27;1.17;;;7.40;99.90;;;;;;5039141;28;20037;-87
2023/04/16 02:00:08;;;;;;;0.68;0.68;;;7.40;99.90;;;;;;4990244;28;20060;-86
2023/04/16 02:02:35;;;;;;;1.85;1.73;;;7.50;99.90;;;;;;5038985;28;20045;-87
2023/04/16 02:05:01;;;;;;;1.45;1.35;;;7.50;99.90;;;;;;5038798;28;20057;-86
2023/04/16 02:07:27;;;;;;;;;;;7.50;99.90;;;;;;5040304;28;20054;-88
2023/04/16 02:09:54;;;;;;;1.45;1.35;;;7.50;99.90;;;;;;5022951;28;19921;-87
2023/04/16 02:12:20;;;;;;;1.23;1.23;;;7.60;99.90;;;;;;5039083;28;20053;-85
2023/04/16 02:14:46;;;;;;;0.95;0.95;;;7.60;99.90;;;;;;5039118;28;20056;-86
2023/04/16 02:17:11;;;;;;;1.27;1.20;;;7.60;99.90;;;;;;5022950;28;20494;-87
2023/04/16 02:19:37;;;;;;;1.30;1.30;;;7.60;99.90;;;;;;5038735;28;20058;-88
2023/04/16 02:22:04;;;;;;;1.40;1.30;;;7.60;99.90;;;;;;5039408;28;20137;-86
2023/04/16 02:24:30;;;;;;;0.98;0.88;;;7.60;99.90;;;;;;5038207;28;20056;-88
2023/04/16 02:26:57;;;;;;;1.20;1.20;;;7.70;99.90;;;;;;5038288;28;20034;-87
2023/04/16 02:29:22;;;;;;;0.93;0.93;;;7.70;99.90;;;;;;5038717;28;20087;-84
2023/04/16 02:31:48;;;;;;;2.17;1.95;;;7.70;99.90;;;;;;5038563;28;20061;-88
2023/04/16 02:34:14;;;;;;;;;;;7.60;99.90;;;;;;5038948;28;20054;-87
2023/04/16 02:36:40;;;;;;;1.58;1.48;;;7.70;99.90;;;;;;5038367;28;20437;-86
2023/04/16 02:39:06;;;;;;;0.77;0.77;;;7.60;99.90;;;;;;5055541;28;20043;-88
2023/04/16 02:41:31;;;;;;;1.33;1.27;;;7.60;99.90;;;;;;5039568;28;20052;-88
2023/04/16 02:43:57;;;;;;;2.97;2.47;;;7.60;99.90;;;;;;5022329;28;20380;-89
2023/04/16 02:46:23;;;;;;;5.82;2.78;;;7.60;99.90;;;;;;5006771;28;20049;-85
2023/04/16 02:48:48;;;;;;;1.58;1.48;;;7.60;99.90;;;;;;5039257;28;20049;-86
2023/04/16 02:51:14;;;;;;;3.20;2.10;;;7.60;99.90;;;;;;5054256;28;20045;-85
2023/04/16 02:53:44;;;;;;;1.50;1.40;;;7.60;99.90;;;;;;5036890;28;20088;-87
2023/04/16 02:56:10;;;;;;;2.70;2.50;;;7.60;99.90;;;;;;5053344;28;20049;-88
2023/04/16 02:58:36;;;;;;;1.35;1.23;;;7.60;99.90;;;;;;5053784;28;20049;-88
2023/04/16 03:01:07;;;;;;;1.90;1.27;;;7.60;99.90;;;;;;5038943;28;20515;-85
2023/04/16 03:03:33;;;;;;;4.70;2.53;;;7.60;99.90;;;;;;5038841;28;20049;-86
2023/04/16 03:05:58;;;;;;;3.30;2.30;;;7.60;99.90;;;;;;5054786;28;20492;-86
2023/04/16 03:08:24;;;;;;;1.45;1.38;;;7.60;99.90;;;;;;5038450;28;20140;-85
2023/04/16 03:10:50;;;;;;;1.88;1.77;;;7.60;99.90;;;;;;5037750;28;20045;-86
2023/04/16 03:13:16;;;;;;;0.60;0.60;;;7.60;99.90;;;;;;5039739;28;20101;-88
2023/04/16 03:15:47;;;;;;;3.03;2.05;;;7.60;99.90;;;;;;5038443;28;20361;-86
2023/04/16 03:18:13;;;;;;;1.55;1.50;;;7.50;99.90;;;;;;5038972;28;20051;-86
2023/04/16 03:20:39;;;;;;;0.93;0.93;;;7.50;99.90;;;;;;5021415;28;20080;-87
2023/04/16 03:23:05;;;;;;;1.25;1.20;;;7.50;99.90;;;;;;5039492;28;20108;-86
2023/04/16 03:25:30;;;;;;;1.60;1.58;;;7.50;99.90;;;;;;5039464;28;20440;-87
2023/04/16 03:27:56;;;;;;;1.52;1.42;;;7.50;99.90;;;;;;5022848;28;20053;-88
2023/04/16 03:30:22;;;;;;;1.98;1.83;;;7.50;99.90;;;;;;5037112;28;20126;-87
2023/04/16 03:32:47;;;;;;;10.35;2.75;;;7.50;99.90;;;;;;5038881;28;20056;-86
2023/04/16 03:35:13;;;;;;;0.88;0.88;;;7.50;99.90;;;;;;5037284;28;20038;-88
2023/04/16 03:37:39;;;;;;;1.85;1.20;;;7.50;99.90;;;;;;5037468;28;20388;-87
2023/04/16 03:40:06;;;;;;;2.05;1.67;;;7.50;99.90;;;;;;5037615;28;20361;-85
2023/04/16 03:42:32;;;;;;;0.82;0.82;;;7.50;99.90;;;;;;5021007;28;20052;-87
2023/04/16 03:44:58;;;;;;;;;;;7.50;99.90;;;;;;5038318;28;20516;-87
2023/04/16 03:47:23;;;;;;;1.10;1.00;;;7.50;99.90;;;;;;5037745;28;19979;-87
2023/04/16 03:49:49;;;;;;;0.90;0.90;;;7.50;99.90;;;;;;5037393;28;20049;-88
2023/04/16 03:52:15;;;;;;;1.60;1.50;;;7.50;99.90;;;;;;5037011;28;20053;-87
2023/04/16 03:54:41;;;;;;;0.90;0.90;;;7.50;99.90;;;;;;5036699;28;20438;-88
2023/04/16 03:57:06;;;;;;;0.75;0.75;;;7.50;99.90;;;;;;5036526;28;20030;-87
2023/04/16 03:59:32;;;;;;;0.88;0.88;;;7.50;99.90;;;;;;5020234;28;20057;-87
2023/04/16 04:01:58;;;;;;;1.52;1.42;;;7.50;99.90;;;;;;5037270;28;20140;-88
2023/04/16 04:04:23;;;;;;;0.60;0.60;;;7.50;99.90;;;;;;5052347;28;20045;-88
2023/04/16 04:06:49;;;;;;;0.70;0.70;;;7.50;99.90;;;;;;5036943;28;20128;-86
2023/04/16 04:09:15;;;;;;;0.50;0.50;;;7.50;99.90;;;;;;5037688;28;20439;-88
2023/04/16 04:11:41;;;;;;;1.42;0.90;;;7.40;99.90;;;;;;5036916;28;20056;-88
2023/04/16 04:14:07;;;;;;;1.38;1.27;;;7.50;99.90;;;;;;5054886;28;20095;-87
2023/04/16 04:16:34;;;;;;;0.60;0.60;;;7.40;99.90;;;;;;5054065;28;20136;-84
2023/04/16 04:19:00;;;;;;;0.60;0.60;;;7.40;99.90;;;;;;5054545;28;20055;-88
2023/04/16 04:21:27;;;;;;;0.93;0.93;;;7.40;99.90;;;;;;5038106;28;20101;-85
2023/04/16 04:23:53;;;;;;;1.15;1.05;;;7.50;99.90;;;;;;5043088;28;20037;-87
2023/04/16 04:26:19;;;;;;;1.70;1.60;;;7.40;99.90;;;;;;5019496;28;20535;-88
2023/04/16 04:28:46;;;;;;;1.02;0.90;;;7.40;99.90;;;;;;5035810;28;20049;-88
2023/04/16 04:31:12;;;;;;;;;;;7.40;99.90;;;;;;5037018;28;20056;-87
2023/04/16 04:33:37;;;;;;;0.60;0.60;;;7.40;99.90;;;;;;5038208;28;20355;-87
2023/04/16 04:36:03;;;;;;;1.25;1.17;;;7.40;99.90;;;;;;5053243;28;20067;-88
2023/04/16 04:38:30;;;;;;;0.50;0.50;;;7.40;99.90;;;;;;5052358;28;20057;-87
2023/04/16 04:40:56;;;;;;;2.35;1.40;;;7.40;99.90;;;;;;5053282;28;20089;-83
2023/04/16 04:43:22;;;;;;;1.10;1.02;;;7.40;99.90;;;;;;5063635;28;20049;-87
2023/04/16 04:45:48;;;;;;;0.70;0.70;;;7.50;99.90;;;;;;5037730;28;20061;-88
2023/04/16 04:48:14;;;;;;;0.80;0.80;;;7.40;99.90;;;;;;5036266;28;20064;-89
2023/04/16 04:50:41;;;;;;;0.50;0.50;;;7.40;99.90;;;;;;5053233;28;20058;-88
2023/04/16 04:53:09;;;;;;;;;;;7.40;99.90;;;;;;5041859;28;20091;-87
2023/04/16 04:55:38;;;;;;;0.55;0.55;;;7.40;99.90;;;;;;5039678;28;20363;-83
2023/04/16 04:58:05;;;;;;;0.63;0.63;;;7.40;99.90;;;;;;5019941;28;20128;-87
2023/04/16 05:00:32;;;;;;;1.15;1.08;;;7.40;99.90;;;;;;5053525;28;20061;-88
2023/04/16 05:03:02;;;;;;;0.73;0.73;;;7.40;99.90;;;;;;5038487;28;20064;-86
2023/04/16 05:05:28;;;;;;;2.10;1.90;;;7.40;99.90;;;;;;5038273;28;20050;-88
2023/04/16 05:07:54;;;;;;;1.42;1.35;;;7.40;99.90;;;;;;5041397;28;20067;-87
2023/04/16 05:10:19;;;;;;;0.80;0.80;;;7.40;99.90;;;;;;5023427;28;20045;-87
2023/04/16 05:12:49;;;;;;;0.63;0.63;;;7.40;99.90;;;;;;5036749;28;20057;-85
2023/04/16 05:15:15;;;;;;;1.65;1.58;;;7.40;99.90;;;;;;5036051;28;20052;-87
2023/04/16 05:17:41;;;;;;;1.02;1.02;;;7.40;99.90;;;;;;5053491;28;20063;-88
2023/04/16 05:20:08;;;;;;;2.75;2.25;;;7.30;99.90;;;;;;5020304;28;20045;-86
2023/04/16 05:22:34;;;;;;;1.45;1.35;;;7.30;99.90;;;;;;5054627;28;20110;-89
2023/04/16 05:25:00;;;;;;;2.05;1.95;;;7.30;99.90;;;;;;5038588;28;20073;-89
2023/04/16 05:27:25;;;;;;;0.75;0.75;;;7.40;99.90;;;;;;5037982;28;20576;-88
2023/04/16 05:29:51;;;;;;;1.65;1.55;;;7.30;99.90;;;;;;5039336;28;20380;-83
2023/04/16 05:32:17;;;;;;;1.48;1.15;;;7.30;99.90;;;;;;5036806;28;20054;-86
2023/04/16 05:34:42;;;;;;;11.07;2.00;;;7.30;99.90;;;;;;5037787;28;20049;-88
2023/04/16 05:37:08;;;;;;;5.03;1.02;;;7.40;99.90;;;;;;5036532;28;20082;-88
2023/04/16 05:39:34;;;;;;;0.82;0.82;;;7.30;99.90;;;;;;5054010;28;20053;-88
2023/04/16 05:41:59;;;;;;;0.60;0.60;;;7.30;99.90;;;;;;5034969;28;20084;-87
2023/04/16 05:44:25;;;;;;;1.67;1.58;;;7.30;99.90;;;;;;5034983;28;20093;-86
2023/04/16 05:46:51;;;;;;;1.67;1.58;;;7.40;99.90;;;;;;5037052;28;20109;-87
2023/04/16 05:49:21;;;;;;;;;;;7.40;99.90;;;;;;5036722;28;20065;-88
2023/04/16 05:51:47;;;;;;;0.80;0.80;;;7.40;99.90;;;;;;5035203;28;19921;-88
2023/04/16 05:54:12;;;;;;;;;;;7.50;99.90;;;;;;5038284;28;20052;-88
2023/04/16 05:56:38;;;;;;;2.25;2.05;;;7.50;99.90;;;;;;5038381;28;19925;-87
2023/04/16 05:59:04;;;;;;;0.90;0.90;;;7.50;99.90;;;;;;5037599;28;20053;-88
2023/04/16 06:01:29;;;;;;;1.85;1.75;;;7.50;99.90;;;;;;5038813;28;20044;-87
2023/04/16 06:03:55;;;;;;;0.70;0.70;;;7.60;99.90;;;;;;5023815;28;20052;-88
2023/04/16 06:06:21;;;;;;;2.03;1.92;;;7.70;99.90;;;;;;5040041;28;20053;-88
2023/04/16 06:08:46;;;;;;;2.42;2.30;;;7.70;99.90;;;;;;5040202;28;20093;-86
2023/04/16 06:11:12;;;;;;;0.60;0.60;;;7.80;99.90;;;;;;5038410;28;20476;-88
2023/04/16 06:13:38;;;;;;;2.50;2.30;;;7.80;99.90;;;;;;5038482;28;20045;-88
2023/04/16 06:16:04;;;;;;;1.40;1.35;;;7.80;99.90;;;;;;5038987;28;20084;-87
2023/04/16 06:18:30;;;;;;;3.03;1.73;;;7.90;99.90;;;;;;5022735;28;20053;-86
2023/04/16 06:20:57;;;;;;;5.00;4.68;;;7.90;99.90;;;;;;5021968;28;20485;-86
2023/04/16 06:23:23;;;;;;;6.32;4.72;;;7.90;99.90;;;;;;5038978;28;20056;-86
2023/04/16 06:25:49;;;;;;;3.33;2.15;;;8.00;99.90;;;;;;5039842;28;20046;-87
2023/04/16 06:28:15;;;;;;;0.55;0.55;;;8.00;99.90;;;;;;5025435;28;20061;-88
2023/04/16 06:30:40;;;;;;;0.65;0.65;;;8.10;99.90;;;;;;5023612;28;20164;-85
2023/04/16 06:33:06;;;;;;;0.60;0.60;;;8.10;99.90;;;;;;5039681;28;20053;-88
2023/04/16 06:35:32;;;;;;;1.27;1.23;;;8.20;99.90;;;;;;5022659;28;20048;-85
2023/04/16 06:37:57;;;;;;;1.08;0.93;;;8.30;99.90;;;;;;5022494;28;20059;-88
2023/04/16 06:40:23;;;;;;;0.98;0.82;;;8.40;99.90;;;;;;5038309;28;20049;-87
2023/04/16 06:42:49;;;;;;;0.77;0.77;;;8.50;99.90;;;;;;5036297;28;20421;-87
2023/04/16 06:45:15;;;;;;;0.73;0.73;;;8.60;99.90;;;;;;5037467;28;20060;-85
2023/04/16 06:47:40;;;;;;;1.30;1.20;;;8.60;99.90;;;;;;5038162;28;20045;-88
2023/04/16 06:50:06;;;;;;;0.70;0.70;;;8.70;99.90;;;;;;5038244;28;20056;-86
2023/04/16 06:52:32;;;;;;;;;;;8.80;99.90;;;;;;5040032;28;20049;-86
2023/04/16 06:54:58;;;;;;;0.70;0.70;;;8.80;99.90;;;;;;5039145;28;20374;-88
2023/04/16 06:57:23;;;;;;;1.05;1.05;;;8.90;99.90;;;;;;5039749;28;20043;-88
2023/04/16 06:59:49;;;;;;;0.40;0.40;;;8.90;99.90;;;;;;5038771;28;20076;-89
2023/04/16 07:02:15;;;;;;;1.65;1.30;;;9.00;99.90;;;;;;5038645;28;20045;-87
2023/04/16 07:04:41;;;;;;;1.42;1.33;;;9.00;99.90;;;;;;5037257;28;20041;-89
2023/04/16 07:07:07;;;;;;;1.58;1.48;;;9.10;99.90;;;;;;5039309;28;20045;-88
2023/04/16 07:09:33;;;;;;;2.60;2.40;;;9.10;99.90;;;;;;5038259;28;20057;-87
2023/04/16 07:11:58;;;;;;;1.77;0.73;;;9.10;99.90;;;;;;5037901;28;20128;-87
2023/04/16 07:14:24;;;;;;;0.60;0.60;;;9.10;99.90;;;;;;5038274;28;20045;-88
2023/04/16 07:16:50;;;;;;;2.00;1.90;;;9.20;99.90;;;;;;5038106;28;20085;-86
2023/04/16 07:19:15;;;;;;;1.67;1.58;;;9.20;99.90;;;;;;5037917;28;20137;-89
2023/04/16 07:21:42;;;;;;;12.25;1.63;;;9.30;99.90;;;;;;5038455;28;20431;-88
2023/04/16 07:24:10;;;;;;;1.85;0.77;;;9.30;99.90;;;;;;5037599;28;20053;-84
2023/04/16 07:26:36;;;;;;;0.65;0.65;;;9.30;99.90;;;;;;5020978;28;20106;-89
2023/04/16 07:29:02;;;;;;;0.93;0.88;;;9.20;99.90;;;;;;5054890;28;20132;-87
2023/04/16 07:31:28;;;;;;;1.08;1.08;;;9.30;99.90;;;;;;5038407;28;20057;-87
2023/04/16 07:33:53;;;;;;;;;;;9.20;99.90;;;;;;5038047;28;20167;-88
2023/04/16 07:36:20;;;;;;;0.77;0.77;;;9.20;99.90;;;;;;5037956;28;19921;-84
2023/04/16 07:38:45;;;;;;;1.02;1.00;;;9.20;99.90;;;;;;5021093;28;20041;-89
2023/04/16 07:41:12;;;;;;;0.80;0.80;;;9.30;99.90;;;;;;5038931;28;20060;-89
2023/04/16 07:43:37;;;;;;;1.35;0.77;;;9.30;99.90;;;;;;5053990;28;20049;-86
2023/04/16 07:46:03;;;;;;;1.20;1.10;;;9.40;99.90;;;;;;5037803;28;20088;-88
2023/04/16 07:48:29;;;;;;;1.35;1.25;;;9.40;99.90;;;;;;5037620;28;20095;-87
2023/04/16 07:50:55;;;;;;;1.95;1.27;;;9.40;99.90;;;;;;5037701;28;20042;-88
2023/04/16 07:53:20;;;;;;;2.22;2.10;;;9.50;99.90;;;;;;5039004;28;20096;-87
2023/04/16 07:55:46;;;;;;;2.45;2.30;;;9.60;99.90;;;;;;5037365;28;20084;-89
2023/04/16 07:58:12;;;;;;;1.83;1.23;;;9.60;99.90;;;;;;5036362;28;20088;-86
2023/04/16 08:00:38;;;;;;;1.65;1.55;;;9.70;99.90;;;;;;5037116;28;20507;-87
2023/04/16 08:03:04;;;;;;;1.88;0.80;;;9.70;99.90;;;;;;5037761;28;20044;-88
2023/04/16 08:05:29;;;;;;;2.15;1.55;;;9.70;99.90;;;;;;5036478;28;20480;-87
2023/04/16 08:07:55;;;;;;;0.60;0.60;;;9.80;99.90;;;;;;5020953;28;20076;-83
2023/04/16 08:10:21;;;;;;;0.60;0.60;;;9.90;99.90;;;;;;5037354;28;20049;-85
2023/04/16 08:12:46;;;;;;;1.58;1.48;;;10.00;99.90;;;;;;5037324;28;20045;-87
2023/04/16 08:15:12;;;;;;;0.30;0.30;;;10.10;99.90;;;;;;5019189;28;20088;-86
2023/04/16 08:17:38;;;;;;;0.77;0.77;;;10.20;99.90;;;;;;5039019;28;20053;-88
2023/04/16 08:20:05;;;;;;;2.33;1.05;;;10.40;99.90;;;;;;5038181;28;20087;-87
2023/04/16 08:22:32;;;;;;;5.93;1.58;;;10.50;99.90;;;;;;5050557;28;20041;-86
2023/04/16 08:24:57;;;;;;;0.45;0.45;;;10.60;99.90;;;;;;5051397;28;20033;-85
2023/04/16 08:27:23;;;;;;;3.33;2.72;;;10.70;99.90;;;;;;5052099;28;20045;-85
2023/04/16 08:29:49;;;;;;;0.95;0.80;;;10.80;99.90;;;;;;5036122;28;20080;-86
2023/04/16 08:32:14;;;;;;;0.50;0.50;;;10.90;99.90;;;;;;5043497;28;20050;-88
2023/04/16 08:34:41;;;;;;;0.95;0.95;;;11.00;99.90;;;;;;5038606;28;20049;-88
2023/04/16 08:37:06;;;;;;;1.77;1.67;;;11.00;99.90;;;;;;5037579;28;20089;-85
2023/04/16 08:39:32;;;;;;;0.60;0.60;;;11.10;99.90;;;;;;5025324;28;20046;-86
2023/04/16 08:42:01;;;;;;;1.65;1.55;;;11.20;99.90;;;;;;5050502;28;20068;-84
2023/04/16 08:44:36;;;;;;;7.53;1.42;;;11.30;99.90;;;;;;5047106;28;20049;-89
2023/04/16 08:47:02;;;;;;;0.65;0.50;;;11.40;99.90;;;;;;5036098;28;20054;-88
2023/04/16 08:49:28;;;;;;;2.38;2.25;;;11.50;99.90;;;;;;5019030;28;20053;-87
2023/04/16 08:51:55;;;;;;;0.70;0.70;;;11.60;99.90;;;;;;5036180;28;20045;-83
2023/04/16 08:54:41;;;;;;;2.00;1.90;;;11.60;99.90;;;;;;5038193;28;20050;-88
2023/04/16 08:57:10;;;;;;;2.92;0.93;;;11.60;99.90;;;;;;5038563;28;20049;-89
2023/04/16 08:59:37;;;;;;;1.17;1.13;;;11.80;99.90;;;;;;5019455;28;20050;-89
2023/04/16 09:02:05;;;;;;;2.38;1.27;;;11.90;99.90;;;;;;5035754;28;20458;-88
2023/04/16 09:04:32;;;;;;;6.85;1.38;;;12.00;99.90;;;;;;5035117;28;20060;-86
2023/04/16 09:06:59;;;;;;;2.15;2.00;;;12.10;99.90;;;;;;5050785;28;20096;-87
2023/04/16 09:09:26;;;;;;;1.42;1.33;;;12.20;99.90;;;;;;5036322;28;20057;-87
2023/04/16 09:11:53;;;;;;;1.05;0.75;;;12.30;99.90;;;;;;5035278;28;20354;-89
2023/04/16 09:14:19;;;;;;;1.55;1.45;;;12.30;99.90;;;;;;5051273;28;20056;-87
2023/04/16 09:16:46;;;;;;;1.70;1.55;;;12.30;99.90;;;;;;5033822;28;20495;-85
2023/04/16 09:19:15;;;;;;;1.33;1.02;;;12.30;99.90;;;;;;5034318;28;20123;-87
2023/04/16 09:21:44;;;;;;;5.53;2.22;;;12.40;99.90;;;;;;5034155;28;20054;-88
2023/04/16 09:24:10;;;;;;;1.30;1.13;;;12.50;99.90;;;;;;5034297;28;20105;-87
2023/04/16 09:26:36;;;;;;;0.65;0.65;;;12.50;99.90;;;;;;5033909;28;20092;-88
2023/04/16 09:29:02;;;;;;;3.00;1.10;;;12.60;99.90;;;;;;5037226;28;20053;-83
2023/04/16 09:31:27;;;;;;;1.48;1.38;;;12.70;99.90;;;;;;5038274;28;20100;-88
2023/04/16 09:34:13;;;;;;;1.42;1.30;;;12.70;99.90;;;;;;5040607;28;20133;-85
2023/04/16 09:36:39;;;;;;;1.75;1.05;;;12.80;99.90;;;;;;5038074;28;20046;-90
2023/04/16 09:39:05;;;;;;;1.65;0.90;;;12.80;99.90;;;;;;5039200;28;20444;-87
2023/04/16 09:41:34;;;;;;;0.88;0.88;;;12.90;99.90;;;;;;5038834;28;20046;-86
2023/04/16 09:44:03;;;;;;;1.20;0.50;;;12.90;99.90;;;;;;5055295;28;20125;-87
2023/04/16 09:46:28;;;;;;;2.15;1.75;;;12.90;99.90;;;;;;5055382;28;20583;-87
2023/04/16 09:48:54;;;;;;;5.72;2.17;;;12.90;99.90;;;;;;5037491;28;20144;-89
2023/04/16 09:51:20;;;;;;;;;;;12.90;99.90;;;;;;5038549;28;20125;-87
2023/04/16 09:53:45;;;;;;;3.45;1.42;;;12.90;99.90;;;;;;5037591;28;19938;-86
2023/04/16 09:56:11;;;;;;;;;;;12.90;99.90;;;;;;5021796;28;20049;-86
2023/04/16 09:58:37;;;;;;;0.70;0.70;;;13.00;99.90;;;;;;5039493;28;19921;-85
2023/04/16 10:01:11;;;;;;;2.10;1.95;;;13.00;99.90;;;;;;5041384;28;20156;-89
2023/04/16 10:03:38;;;;;;;2.28;2.08;;;13.10;99.90;;;;;;5038456;28;20075;-89
2023/04/16 10:06:19;;;;;;;2.17;1.58;;;13.20;99.90;;;;;;5039599;28;20356;-89
2023/04/16 10:08:49;;;;;;;1.40;1.17;;;13.20;99.90;;;;;;5039854;28;20061;-87
2023/04/16 10:11:16;;;;;;;1.42;1.33;;;13.30;99.90;;;;;;5040083;28;20125;-88
2023/04/16 10:13:42;;;;;;;2.65;1.05;;;13.30;99.90;;;;;;5039493;28;20046;-85
2023/04/16 10:16:08;;;;;;;5.60;2.72;;;13.40;99.90;;;;;;5055220;28;20053;-87
2023/04/16 10:18:37;;;;;;;0.70;0.70;;;13.50;99.90;;;;;;5038302;28;20034;-88
2023/04/16 10:21:03;;;;;;;0.80;0.65;;;13.50;99.90;;;;;;5039062;28;20045;-85
2023/04/16 10:23:29;;;;;;;1.75;1.25;;;13.60;99.90;;;;;;5021885;28;20060;-88
2023/04/16 10:25:57;;;;;;;;;;;13.60;99.90;;;;;;5038738;28;20052;-88
2023/04/16 10:28:23;;;;;;;2.92;0.73;;;13.70;99.90;;;;;;5038116;28;20283;-84
2023/04/16 10:30:53;;;;;;;1.67;1.58;;;13.50;99.90;;;;;;5038533;28;20501;-85
2023/04/16 10:33:20;;;;;;;1.10;0.63;;;13.60;99.90;;;;;;5037581;28;20045;-87
2023/04/16 10:35:46;;;;;;;2.25;2.05;;;13.60;99.90;;;;;;5035909;28;20104;-88
2023/04/16 10:38:26;;;;;;;2.45;1.98;;;13.60;99.90;;;;;;5036656;28;20136;-87
2023/04/16 10:41:02;;;;;;;1.05;0.93;;;13.60;99.90;;;;;;5061032;28;20055;-86
2023/04/16 10:43:33;;;;;;;0.45;0.45;;;13.60;99.90;;;;;;5053787;28;20149;-85
2023/04/16 10:46:20;;;;;;;0.80;0.65;;;13.50;99.90;;;;;;5053764;28;20053;-84
2023/04/16 10:48:47;;;;;;;1.42;1.35;;;13.60;99.90;;;;;;5035376;28;20064;-87
2023/04/16 10:51:31;;;;;;;1.98;1.27;;;13.60;99.90;;;;;;5037303;28;20157;-87
2023/04/16 10:54:01;;;;;;;1.05;1.05;;;13.60;99.90;;;;;;5036464;28;20052;-88
2023/04/16 10:56:30;;;;;;;2.00;1.33;;;13.60;99.90;;;;;;5036206;28;20095;-88
2023/04/16 10:58:56;;;;;;;1.10;1.02;;;13.60;99.90;;;;;;5036287;28;20411;-88
2023/04/16 11:01:35;;;;;;;1.60;1.50;;;13.60;99.90;;;;;;5053768;28;20053;-88
2023/04/16 11:04:20;;;;;;;3.90;3.60;;;13.50;99.90;;;;;;5037363;28;20057;-88
2023/04/16 11:07:06;;;;;;;5.68;2.45;;;13.40;99.90;;;;;;5034856;28;20510;-87
2023/04/16 11:09:54;;;;;;;0.68;0.68;;;13.20;99.90;;;;;;5039909;28;20050;-85
2023/04/16 11:12:19;;;;;;;;;;;13.10;99.90;;;;;;5041828;28;20033;-87
2023/04/16 11:15:00;;;;;;;1.48;1.30;;;13.10;99.90;;;;;;5036078;28;19929;-86
2023/04/16 11:17:37;;;;;;;1.85;1.73;;;13.00;99.90;;;;;;5036612;28;20045;-88
2023/04/16 11:20:24;;;;;;;1.63;1.52;;;13.10;99.90;;;;;;5036513;28;20037;-86
2023/04/16 11:22:51;;;;;;;2.25;1.95;;;13.30;99.90;;;;;;5036912;28;20115;-88
2023/04/16 11:25:25;;;;;;;1.40;1.30;;;13.20;99.90;;;;;;5053746;28;20503;-86
2023/04/16 11:27:52;;;;;;;1.65;1.55;;;13.20;99.90;;;;;;5052991;28;20049;-87
2023/04/16 11:30:26;;;;;;;1.45;1.33;;;13.10;99.90;;;;;;5036776;28;20072;-86
2023/04/16 11:32:52;;;;;;;1.85;1.75;;;13.20;99.90;;;;;;5020823;28;20105;-88
2023/04/16 11:35:18;;;;;;;4.07;3.70;;;13.30;99.90;;;;;;5036801;28;20463;-87
2023/04/16 11:37:44;;;;;;;;;;;13.30;99.90;;;;;;5020283;28;20124;-86
2023/04/16 11:40:11;;;;;;;1.08;1.08;;;13.40;99.90;;;;;;5037021;28;19960;-88
2023/04/16 11:42:41;;;;;;;2.53;1.55;;;13.60;99.90;;;;;;5036046;28;20042;-88
2023/04/16 11:45:11;;;;;;;2.20;1.17;;;13.80;99.90;;;;;;5036135;28;20053;-83
2023/04/16 11:47:54;;;;;;;1.98;1.77;;;13.80;99.90;;;;;;5036986;28;20045;-85
2023/04/16 11:50:28;;;;;;;0.65;0.65;;;13.80;99.90;;;;;;5051505;28;20053;-87
2023/04/16 11:52:56;;;;;;;1.50;1.40;;;13.70;99.90;;;;;;5035833;28;20049;-86
2023/04/16 11:55:22;;;;;;;1.75;0.82;;;13.60;99.90;;;;;;5038121;28;20095;-88
2023/04/16 11:57:49;;;;;;;2.83;1.63;;;13.60;99.90;;;;;;5037834;28;20182;-86
2023/04/16 12:00:15;;;;;;;1.27;1.17;;;13.60;99.90;;;;;;5055723;28;20037;-87
2023/04/16 12:02:42;;;;;;;;;;;13.50;99.90;;;;;;5038748;28;20325;-86
2023/04/16 12:05:27;;;;;;;1.50;0.80;;;13.50;99.90;;;;;;5035889;28;19919;-88
2023/04/16 12:07:53;;;;;;;3.38;1.58;;;13.50;99.90;;;;;;5035934;28;20453;-86
2023/04/16 12:10:19;;;;;;;;;;;13.40;99.90;;;;;;5053780;28;20445;-88
2023/04/16 12:12:44;;;;;;;1.52;1.20;;;13.50;99.90;;;;;;5035888;28;19970;-87
2023/04/16 12:15:10;;;;;;;;;;;13.40;99.90;;;;;;5036401;28;20095;-85
2023/04/16 12:17:37;;;;;;;2.78;2.22;;;13.40;99.90;;;;;;5052301;28;20382;-87
2023/04/16 12:20:14;;;;;;;0.77;0.77;;;13.50;99.90;;;;;;5021011;28;20435;-87
2023/04/16 12:22:47;;;;;;;1.33;1.27;;;13.70;99.90;;;;;;5036907;28;20048;-85
2023/04/16 12:25:17;;;;;;;1.23;1.00;;;13.80;99.90;;;;;;5037293;28;20488;-86
2023/04/16 12:27:44;;;;;;;1.30;1.20;;;13.70;99.90;;;;;;5038468;28;20122;-86
2023/04/16 12:30:11;;;;;;;4.85;4.43;;;13.70;99.90;;;;;;5042651;28;20049;-84
2023/04/16 12:32:36;;;;;;;4.50;3.15;;;13.60;99.90;;;;;;5047733;28;20064;-87
2023/04/16 12:35:02;;;;;;;2.63;1.75;;;13.70;99.90;;;;;;5049159;28;20041;-85
2023/04/16 12:37:28;;;;;;;;;;;13.60;99.90;;;;;;5048303;28;20049;-86
2023/04/16 12:39:54;;;;;;;2.17;0.65;;;13.60;99.90;;;;;;5047381;28;19976;-85
2023/04/16 12:42:20;;;;;;;1.05;0.95;;;13.60;99.90;;;;;;5063281;28;20037;-87
2023/04/16 12:44:45;;;;;;;2.45;1.63;;;13.80;99.90;;;;;;5019862;28;20498;-86
2023/04/16 12:47:12;;;;;;;0.75;0.75;;;14.00;99.90;;;;;;5036786;28;20101;-86
2023/04/16 12:49:37;;;;;;;;;;;14.00;99.90;;;;;;5035797;28;20048;-88
2023/04/16 12:52:03;;;;;;;0.98;0.85;;;14.00;99.90;;;;;;5035724;28;20015;-89
2023/04/16 12:54:30;;;;;;;;;;;13.90;99.90;;;;;;5035180;28;20465;-87
2023/04/16 12:56:56;;;;;;;2.90;2.05;;;13.80;99.90;;;;;;5018572;28;19921;-85
2023/04/16 12:59:22;;;;;;;1.77;1.67;;;13.70;99.90;;;;;;5034995;28;20152;-87